Time;durP1;ratioP1;P1;durP2;ratioP2;P2;SDS_P1;SDS_P2;PMS_P1;PMS_P2;Temp;Humidity;BMP_temperature;BMP_pressure;BME280_temperature;BME280_humidity;BME280_pressure;Samples;Min_cycle;Max_cycle;Signal;HPM_P1;HPM_P2
2023/01/01 00:00:40;;;;;;;15.65;5.20;;;13.20;99.90;;;;;;5013299;28;20086;-89
2023/01/01 00:03:06;;;;;;;16.20;5.55;;;13.20;99.90;;;;;;5030780;28;20073;-88
2023/01/01 00:05:32;;;;;;;13.75;5.03;;;13.20;99.90;;;;;;5028649;28;20048;-89
2023/01/01 00:07:58;;;;;;;14.93;5.18;;;13.20;99.90;;;;;;5025566;28;20053;-89
2023/01/01 00:10:29;;;;;;;18.65;6.10;;;13.20;99.90;;;;;;5022793;28;20515;-88
2023/01/01 00:12:56;;;;;;;20.08;7.35;;;13.20;99.90;;;;;;5029658;28;20521;-90
2023/01/01 00:15:23;;;;;;;19.05;7.97;;;13.20;99.90;;;;;;5046442;28;20041;-90
2023/01/01 00:17:49;;;;;;;20.58;9.10;;;13.20;99.90;;;;;;5029907;28;20123;-88
2023/01/01 00:20:15;;;;;;;19.40;9.02;;;13.10;99.90;;;;;;4993496;28;20124;-88
2023/01/01 00:22:41;;;;;;;20.65;8.70;;;13.10;99.90;;;;;;5027303;28;20299;-89
2023/01/01 00:25:07;;;;;;;19.05;9.07;;;13.10;99.90;;;;;;5030196;28;20044;-89
2023/01/01 00:27:33;;;;;;;20.15;9.13;;;13.00;99.90;;;;;;5047840;28;20032;-89
2023/01/01 00:29:59;;;;;;;20.73;9.50;;;12.90;99.90;;;;;;5045222;28;20140;-89
2023/01/01 00:32:24;;;;;;;18.45;8.15;;;12.90;99.90;;;;;;5027801;28;20149;-88
2023/01/01 00:34:50;;;;;;;16.48;7.57;;;12.80;99.90;;;;;;5029178;28;20045;-89
2023/01/01 00:37:17;;;;;;;18.73;7.43;;;12.80;99.90;;;;;;5006861;28;20120;-89
2023/01/01 00:39:43;;;;;;;20.20;7.60;;;12.80;99.90;;;;;;5028630;28;20129;-90
2023/01/01 00:42:09;;;;;;;15.75;7.40;;;12.80;99.90;;;;;;5042297;28;20131;-89
2023/01/01 00:44:35;;;;;;;16.70;8.00;;;12.80;99.90;;;;;;5061170;28;20132;-88
2023/01/01 00:47:00;;;;;;;22.10;7.80;;;12.70;99.90;;;;;;5057935;28;20286;-90
2023/01/01 00:49:26;;;;;;;17.95;7.93;;;12.70;99.90;;;;;;5028361;28;20059;-91
2023/01/01 00:51:52;;;;;;;16.88;7.10;;;12.70;99.90;;;;;;5047032;28;20036;-90
2023/01/01 00:54:18;;;;;;;19.48;7.65;;;12.60;99.90;;;;;;5045965;28;20040;-90
2023/01/01 00:56:44;;;;;;;15.05;7.15;;;12.60;99.90;;;;;;5012787;28;20036;-89
2023/01/01 00:59:10;;;;;;;16.67;7.82;;;12.60;99.90;;;;;;5013884;28;20047;-89
2023/01/01 01:01:36;;;;;;;20.23;7.90;;;12.60;99.90;;;;;;5046144;28;20041;-89
2023/01/01 01:04:05;;;;;;;17.63;7.85;;;12.60;99.90;;;;;;5027574;28;20052;-91
2023/01/01 01:06:42;;;;;;;19.60;9.43;;;;;;;;;;5049087;28;20044;-89
2023/01/01 01:09:08;;;;;;;23.90;10.35;;;13.60;99.90;;;;;;5039334;28;20468;-90
2023/01/01 01:11:34;;;;;;;20.35;9.40;;;12.60;99.90;;;;;;5047472;28;20125;-90
2023/01/01 01:14:00;;;;;;;20.73;10.80;;;12.60;99.90;;;;;;5028374;28;20055;-90
2023/01/01 01:16:28;;;;;;;21.73;11.02;;;12.60;99.90;;;;;;5046538;28;20064;-89
2023/01/01 01:18:57;;;;;;;22.00;11.73;;;12.60;99.90;;;;;;5030512;28;20114;-89
2023/01/01 01:21:24;;;;;;;22.23;11.07;;;12.60;99.90;;;;;;5044684;28;20040;-88
2023/01/01 01:23:50;;;;;;;23.17;11.02;;;12.60;99.90;;;;;;5045832;28;20037;-89
2023/01/01 01:26:17;;;;;;;24.83;12.15;;;12.50;99.90;;;;;;5045422;28;20522;-88
2023/01/01 01:28:43;;;;;;;23.85;12.73;;;12.50;99.90;;;;;;5029434;28;20037;-89
2023/01/01 01:31:09;;;;;;;22.60;12.50;;;12.50;99.90;;;;;;5052804;28;20098;-90
2023/01/01 01:33:35;;;;;;;20.17;12.40;;;12.50;99.90;;;;;;5061486;28;20578;-89
2023/01/01 01:36:01;;;;;;;23.35;13.20;;;;;;;;;;5042065;28;20080;-89
2023/01/01 01:38:27;;;;;;;24.98;13.20;;;12.50;99.90;;;;;;5060842;28;20055;-89
2023/01/01 01:40:53;;;;;;;27.90;14.15;;;12.40;99.90;;;;;;5057656;28;20124;-89
2023/01/01 01:43:39;;;;;;;27.38;14.93;;;12.40;99.90;;;;;;5028186;28;20093;-89
2023/01/01 01:46:20;;;;;;;29.45;15.95;;;12.40;99.90;;;;;;5018240;28;20057;-90
2023/01/01 01:48:49;;;;;;;28.10;15.90;;;12.40;99.90;;;;;;5042891;28;20053;-89
2023/01/01 01:51:21;;;;;;;28.10;16.15;;;12.40;99.90;;;;;;5036371;28;20048;-90
2023/01/01 01:53:54;;;;;;;25.77;15.83;;;12.40;99.90;;;;;;5039653;28;20048;-89
2023/01/01 01:56:23;;;;;;;;;;;12.30;99.90;;;;;;5059833;28;20101;-88
2023/01/01 01:58:49;;;;;;;31.98;18.83;;;12.30;99.90;;;;;;5058437;28;19935;-90
2023/01/01 02:01:15;;;;;;;30.13;19.75;;;12.30;99.90;;;;;;5061767;28;20056;-90
2023/01/01 02:03:52;;;;;;;30.25;20.80;;;12.20;99.90;;;;;;5044193;28;20044;-89
2023/01/01 02:06:18;;;;;;;30.63;20.73;;;12.20;99.90;;;;;;5056915;28;20126;-90
2023/01/01 02:08:46;;;;;;;38.10;22.48;;;12.10;99.90;;;;;;5049830;28;20048;-88
2023/01/01 02:11:11;;;;;;;32.53;21.90;;;12.10;99.90;;;;;;5031227;28;20056;-88
2023/01/01 02:13:37;;;;;;;37.13;23.02;;;12.00;99.90;;;;;;5015052;28;21052;-89
2023/01/01 02:16:25;;;;;;;34.78;22.38;;;12.10;99.90;;;;;;5029331;28;20146;-89
2023/01/01 02:19:19;;;;;;;36.28;23.85;;;12.00;99.90;;;;;;5047789;28;20545;-87
2023/01/01 02:22:03;;;;;;;35.50;22.67;;;12.00;99.90;;;;;;5043754;28;20056;-87
2023/01/01 02:24:32;;;;;;;35.50;22.85;;;12.00;99.90;;;;;;5045496;28;20029;-88
2023/01/01 02:27:19;;;;;;;35.75;22.45;;;11.90;99.90;;;;;;5028964;28;20083;-88
2023/01/01 02:29:52;;;;;;;37.92;24.13;;;11.90;99.90;;;;;;5025833;28;20041;-89
2023/01/01 02:32:37;;;;;;;33.10;22.85;;;11.90;99.90;;;;;;5031251;28;20048;-89
2023/01/01 02:35:36;;;;;;;32.60;20.05;;;11.90;99.90;;;;;;5047091;28;20615;-89
2023/01/01 02:38:08;;;;;;;34.63;20.92;;;11.90;99.90;;;;;;5047093;28;20048;-90
2023/01/01 02:40:39;;;;;;;31.83;19.70;;;11.90;99.90;;;;;;5039709;28;20045;-89
2023/01/01 02:43:05;;;;;;;31.67;19.20;;;11.90;99.90;;;;;;5047322;28;20066;-89
2023/01/01 02:45:32;;;;;;;32.30;18.73;;;12.00;99.90;;;;;;5029938;28;20037;-90
2023/01/01 02:48:06;;;;;;;28.33;18.40;;;12.00;99.90;;;;;;5046165;28;20072;-90
2023/01/01 02:50:32;;;;;;;30.02;18.60;;;12.00;99.90;;;;;;5046217;28;20055;-89
2023/01/01 02:53:07;;;;;;;30.27;18.40;;;12.00;99.90;;;;;;5045727;28;20392;-89
2023/01/01 02:55:58;;;;;;;27.00;16.40;;;12.00;99.90;;;;;;5045656;28;20041;-89
2023/01/01 03:01:38;;;;;;;29.08;16.33;;;12.00;99.90;;;;;;5038620;28;20048;-89
2023/01/01 03:04:17;;;;;;;27.63;14.55;;;12.00;99.90;;;;;;5046452;28;20043;-89
2023/01/01 03:07:04;;;;;;;29.38;14.80;;;12.00;99.90;;;;;;5046278;28;20493;-88
2023/01/01 03:10:00;;;;;;;24.05;13.82;;;12.00;99.90;;;;;;5045941;28;20081;-89
2023/01/01 03:12:57;;;;;;;24.45;13.05;;;12.00;99.90;;;;;;5039061;28;20047;-89
2023/01/01 03:15:36;;;;;;;25.48;12.52;;;12.00;99.90;;;;;;5061704;28;21031;-89
2023/01/01 03:18:23;;;;;;;22.33;11.70;;;12.00;99.90;;;;;;5045644;28;20550;-89
2023/01/01 03:20:53;;;;;;;25.23;12.30;;;12.00;99.90;;;;;;5028898;28;20064;-89
2023/01/01 03:23:26;;;;;;;25.08;12.98;;;12.00;99.90;;;;;;5047718;28;20033;-88
2023/01/01 03:25:56;;;;;;;24.48;12.98;;;12.00;99.90;;;;;;5045043;28;20064;-88
2023/01/01 03:28:27;;;;;;;26.63;12.68;;;12.00;99.90;;;;;;5029439;28;20045;-89
2023/01/01 03:30:54;;;;;;;20.25;12.02;;;11.90;99.90;;;;;;5044990;28;20121;-89
2023/01/01 03:33:40;;;;;;;24.90;12.73;;;11.90;99.90;;;;;;5014341;28;20045;-89
2023/01/01 03:36:15;;;;;;;23.52;11.90;;;13.00;99.90;;;;;;5038236;28;20037;-89
2023/01/01 03:38:40;;;;;;;22.83;12.10;;;11.70;99.90;;;;;;5030131;28;20067;-88
2023/01/01 03:41:41;;;;;;;25.85;13.15;;;11.70;99.90;;;;;;5049589;28;20044;-88
2023/01/01 03:44:10;;;;;;;29.38;14.18;;;11.70;99.90;;;;;;5025463;28;20497;-88
2023/01/01 03:46:36;;;;;;;24.63;13.35;;;11.70;99.90;;;;;;5031090;28;20069;-90
2023/01/01 03:49:05;;;;;;;29.20;13.82;;;11.60;99.90;;;;;;5048437;28;20049;-89
2023/01/01 03:51:50;;;;;;;25.20;15.10;;;11.60;99.90;;;;;;5047972;28;20025;-90
2023/01/01 03:54:32;;;;;;;28.65;14.50;;;11.60;99.90;;;;;;5047497;28;20041;-88
2023/01/01 03:57:09;;;;;;;25.63;13.63;;;11.50;99.90;;;;;;5030011;28;20096;-88
2023/01/01 04:00:15;;;;;;;23.10;12.50;;;11.50;99.90;;;;;;5044955;28;20036;-89
2023/01/01 04:03:03;;;;;;;24.20;11.48;;;11.40;99.90;;;;;;5044416;28;20510;-91
2023/01/01 04:05:31;;;;;;;20.13;10.93;;;11.30;99.90;;;;;;5044458;28;20093;-89
2023/01/01 04:08:00;;;;;;;18.05;8.45;;;11.30;99.90;;;;;;5047541;28;20122;-88
2023/01/01 04:10:30;;;;;;;19.05;7.90;;;11.20;99.90;;;;;;5046082;28;20045;-89
2023/01/01 04:12:56;;;;;;;15.40;6.80;;;11.20;99.90;;;;;;5046742;28;20041;-88
2023/01/01 04:15:26;;;;;;;15.35;6.63;;;11.20;99.90;;;;;;5031290;28;20064;-89
2023/01/01 04:17:53;;;;;;;14.10;5.72;;;11.20;99.90;;;;;;5045950;28;20045;-90
2023/01/01 04:20:19;;;;;;;14.57;5.00;;;11.20;99.90;;;;;;5031187;28;20282;-89
2023/01/01 04:22:45;;;;;;;14.50;5.32;;;11.20;99.90;;;;;;5045391;28;20353;-89
2023/01/01 04:25:12;;;;;;;15.25;5.22;;;11.20;99.90;;;;;;5030540;28;20126;-90
2023/01/01 04:27:39;;;;;;;14.68;4.80;;;11.20;99.90;;;;;;5028969;28;20489;-88
2023/01/01 04:30:07;;;;;;;13.45;4.72;;;11.20;99.90;;;;;;5047426;28;20490;-89
2023/01/01 04:32:33;;;;;;;15.77;4.93;;;11.30;99.90;;;;;;5012393;28;20069;-89
2023/01/01 04:34:59;;;;;;;13.55;5.10;;;11.30;99.90;;;;;;5030731;28;20045;-89
2023/01/01 04:37:25;;;;;;;19.23;5.35;;;11.30;99.90;;;;;;5027501;28;20037;-88
2023/01/01 04:39:51;;;;;;;14.55;5.10;;;11.30;99.90;;;;;;5011926;28;20051;-89
2023/01/01 04:42:18;;;;;;;14.73;5.38;;;11.30;99.90;;;;;;5044230;28;20041;-88
2023/01/01 04:44:43;;;;;;;16.33;6.00;;;11.30;99.90;;;;;;5045848;28;20045;-88
2023/01/01 04:47:09;;;;;;;16.48;5.90;;;11.30;99.90;;;;;;5042738;28;20045;-90
2023/01/01 04:49:35;;;;;;;18.05;6.82;;;11.30;99.90;;;;;;5026600;28;20048;-87
2023/01/01 04:52:01;;;;;;;19.67;6.88;;;11.20;99.90;;;;;;5025124;28;20264;-90
2023/01/01 04:54:27;;;;;;;15.63;6.43;;;11.20;99.90;;;;;;5043248;28;20043;-89
2023/01/01 04:56:52;;;;;;;16.38;6.07;;;11.20;99.90;;;;;;5042913;28;20033;-88
2023/01/01 04:59:18;;;;;;;18.95;5.97;;;11.90;99.90;;;;;;5043673;28;20113;-88
2023/01/01 05:01:44;;;;;;;16.40;5.47;;;11.10;99.90;;;;;;5027754;28;20041;-88
2023/01/01 05:04:12;;;;;;;17.67;5.53;;;11.20;99.90;;;;;;5027103;28;20032;-89
2023/01/01 05:06:38;;;;;;;14.60;5.30;;;11.10;99.90;;;;;;5046347;28;20401;-89
2023/01/01 05:09:04;;;;;;;15.30;4.70;;;11.10;99.90;;;;;;5027330;28;20044;-89
2023/01/01 05:11:30;;;;;;;13.02;4.07;;;11.10;99.90;;;;;;5023188;28;20146;-89
2023/01/01 05:13:58;;;;;;;18.65;4.68;;;11.10;99.90;;;;;;5027358;28;20127;-89
2023/01/01 05:16:26;;;;;;;17.65;3.97;;;11.10;99.90;;;;;;5042739;28;20036;-88
2023/01/01 05:18:52;;;;;;;16.17;4.53;;;11.10;99.90;;;;;;5024108;28;20045;-88
2023/01/01 05:21:23;;;;;;;14.45;3.78;;;11.10;99.90;;;;;;5041254;28;20055;-88
2023/01/01 05:23:54;;;;;;;15.00;4.22;;;11.10;99.90;;;;;;5025829;28;20124;-89
2023/01/01 05:26:23;;;;;;;14.52;4.10;;;11.00;99.90;;;;;;5052658;28;20041;-89
2023/01/01 05:28:49;;;;;;;13.00;3.72;;;11.10;99.90;;;;;;5027192;28;20104;-89
2023/01/01 05:31:17;;;;;;;12.82;3.67;;;12.10;99.90;;;;;;5026065;28;20045;-89
2023/01/01 05:33:43;;;;;;;13.30;3.70;;;11.10;99.90;;;;;;5024845;28;20128;-89
2023/01/01 05:36:14;;;;;;;13.85;4.10;;;11.10;99.90;;;;;;5043405;28;20121;-88
2023/01/01 05:38:40;;;;;;;15.98;3.80;;;11.20;99.90;;;;;;5028100;28;20040;-88
2023/01/01 05:41:07;;;;;;;11.80;3.83;;;11.20;99.90;;;;;;5026321;28;20040;-89
2023/01/01 05:43:34;;;;;;;15.27;4.00;;;11.20;99.90;;;;;;5041075;28;20073;-89
2023/01/01 05:46:10;;;;;;;10.98;3.33;;;11.20;99.90;;;;;;5022905;28;20114;-89
2023/01/01 05:48:36;;;;;;;12.63;3.40;;;11.20;99.90;;;;;;5045925;28;20037;-89
2023/01/01 05:51:07;;;;;;;12.95;3.17;;;11.20;99.90;;;;;;5025007;28;20511;-88
2023/01/01 05:53:34;;;;;;;10.98;3.22;;;11.30;99.90;;;;;;5043195;28;20044;-87
2023/01/01 05:56:00;;;;;;;11.63;3.03;;;11.30;99.90;;;;;;5043835;28;20246;-88
2023/01/01 05:58:27;;;;;;;13.57;3.20;;;11.30;99.90;;;;;;5044066;28;20686;-89
2023/01/01 06:00:53;;;;;;;10.55;3.00;;;11.30;99.90;;;;;;5020927;28;20048;-89
2023/01/01 06:03:19;;;;;;;12.32;3.00;;;11.30;99.90;;;;;;5025898;28;20040;-88
2023/01/01 06:05:45;;;;;;;12.18;2.45;;;11.30;99.90;;;;;;5042246;28;20216;-89
2023/01/01 06:08:11;;;;;;;8.85;2.42;;;11.30;99.90;;;;;;5043556;28;20777;-91
2023/01/01 06:10:37;;;;;;;10.63;2.40;;;11.20;99.90;;;;;;5026572;28;20397;-89
2023/01/01 06:13:02;;;;;;;12.02;2.80;;;11.20;99.90;;;;;;5026755;28;20406;-90
2023/01/01 06:15:29;;;;;;;14.10;2.58;;;11.20;99.90;;;;;;5044449;28;20045;-89
2023/01/01 06:17:54;;;;;;;10.30;2.22;;;11.20;99.90;;;;;;5026216;28;20049;-89
2023/01/01 06:20:20;;;;;;;10.73;2.42;;;11.20;99.90;;;;;;5051052;28;20056;-89
2023/01/01 06:22:46;;;;;;;9.50;2.50;;;11.20;99.90;;;;;;5025911;28;20120;-89
2023/01/01 06:25:12;;;;;;;10.52;2.60;;;11.20;99.90;;;;;;5011640;28;20077;-90
2023/01/01 06:27:38;;;;;;;9.00;2.40;;;11.20;99.90;;;;;;5040674;28;20130;-90
2023/01/01 06:30:05;;;;;;;10.60;2.40;;;11.30;99.90;;;;;;5027415;28;20130;-89
2023/01/01 06:32:31;;;;;;;9.80;2.58;;;11.30;99.90;;;;;;5009679;28;20326;-88
2023/01/01 06:34:57;;;;;;;9.00;1.88;;;11.20;99.90;;;;;;5026865;28;20045;-88
2023/01/01 06:37:23;;;;;;;8.07;1.90;;;11.20;99.90;;;;;;5042175;28;20049;-89
2023/01/01 06:39:49;;;;;;;11.60;2.33;;;11.30;99.90;;;;;;5044444;28;20079;-88
2023/01/01 06:42:15;;;;;;;10.30;2.22;;;11.30;99.90;;;;;;5046755;28;20041;-89
2023/01/01 06:44:41;;;;;;;8.93;1.85;;;11.20;99.90;;;;;;5042889;28;20071;-88
2023/01/01 06:47:07;;;;;;;8.88;2.03;;;11.20;99.90;;;;;;5028022;28;20724;-88
2023/01/01 06:49:32;;;;;;;8.68;1.70;;;11.20;99.90;;;;;;5014712;28;20562;-90
2023/01/01 06:51:58;;;;;;;8.68;1.80;;;10.20;99.90;;;;;;5045612;28;20482;-90
2023/01/01 06:54:24;;;;;;;10.82;2.15;;;11.20;99.90;;;;;;5037507;28;20052;-89
2023/01/01 06:56:50;;;;;;;8.93;1.80;;;11.20;99.90;;;;;;5046708;28;20043;-89
2023/01/01 06:59:18;;;;;;;10.70;2.00;;;11.20;99.90;;;;;;5045410;28;20132;-88
2023/01/01 07:01:44;;;;;;;10.77;2.10;;;11.20;99.90;;;;;;5028497;28;20048;-88
2023/01/01 07:04:13;;;;;;;9.38;2.30;;;11.20;99.90;;;;;;5043989;28;20040;-90
2023/01/01 07:06:38;;;;;;;9.25;1.83;;;11.20;99.90;;;;;;5047673;28;20032;-89
2023/01/01 07:09:05;;;;;;;12.68;2.20;;;11.20;99.90;;;;;;5011318;28;20418;-88
2023/01/01 07:11:31;;;;;;;9.23;2.20;;;11.10;99.90;;;;;;5030173;28;20397;-88
2023/01/01 07:13:57;;;;;;;9.98;2.10;;;11.10;99.90;;;;;;5044386;28;20537;-89
2023/01/01 07:16:24;;;;;;;11.43;2.47;;;10.60;99.90;;;;;;5045731;28;20171;-88
2023/01/01 07:18:50;;;;;;;13.60;2.58;;;11.10;99.90;;;;;;5046430;28;20049;-88
2023/01/01 07:21:31;;;;;;;12.48;2.63;;;11.10;99.90;;;;;;5045214;28;20470;-89
2023/01/01 07:24:02;;;;;;;14.15;2.53;;;11.10;99.90;;;;;;5043368;28;20040;-89
2023/01/01 07:26:29;;;;;;;16.73;2.83;;;11.00;99.90;;;;;;5045713;28;20052;-89
2023/01/01 07:28:55;;;;;;;15.45;2.50;;;11.00;99.90;;;;;;5045643;28;20057;-88
2023/01/01 07:31:21;;;;;;;12.88;2.65;;;11.00;99.90;;;;;;5045148;28;20041;-90
2023/01/01 07:33:46;;;;;;;13.93;2.80;;;11.00;99.90;;;;;;5029121;28;20144;-90
2023/01/01 07:36:12;;;;;;;11.10;2.70;;;10.90;99.90;;;;;;5045303;28;20506;-86
2023/01/01 07:38:38;;;;;;;12.20;2.90;;;10.90;99.90;;;;;;5045764;28;20048;-89
2023/01/01 07:41:04;;;;;;;12.60;2.63;;;10.90;99.90;;;;;;5047404;28;20124;-88
2023/01/01 07:43:30;;;;;;;16.08;3.13;;;10.90;99.90;;;;;;5028895;28;20171;-89
2023/01/01 07:45:57;;;;;;;17.50;2.70;;;10.90;99.90;;;;;;5062196;28;20040;-89
2023/01/01 07:48:23;;;;;;;13.40;2.42;;;10.90;99.90;;;;;;5059928;28;20051;-88
2023/01/01 07:50:50;;;;;;;17.52;3.10;;;10.90;99.90;;;;;;5043959;28;20108;-89
2023/01/01 07:53:16;;;;;;;16.67;3.50;;;10.90;99.90;;;;;;5062549;28;20104;-90
2023/01/01 07:55:41;;;;;;;12.75;2.55;;;10.90;99.90;;;;;;5043202;28;20041;-90
2023/01/01 07:58:10;;;;;;;15.32;2.97;;;10.90;99.90;;;;;;5060604;28;20052;-88
2023/01/01 08:00:35;;;;;;;16.35;3.08;;;10.80;99.90;;;;;;5062272;28;20088;-89
2023/01/01 08:03:01;;;;;;;15.48;3.10;;;10.80;99.90;;;;;;5045118;28;20063;-90
2023/01/01 08:05:27;;;;;;;15.10;3.30;;;10.80;99.90;;;;;;5041836;28;20037;-88
2023/01/01 08:07:53;;;;;;;17.13;3.53;;;10.80;99.90;;;;;;5044743;28;20032;-89
2023/01/01 08:10:19;;;;;;;17.85;3.25;;;10.80;99.90;;;;;;5038011;28;20429;-89
2023/01/01 08:12:46;;;;;;;14.82;3.05;;;10.80;99.90;;;;;;5043129;28;20120;-89
2023/01/01 08:15:12;;;;;;;15.40;3.20;;;10.80;99.90;;;;;;5044066;28;20056;-89
2023/01/01 08:17:39;;;;;;;16.10;3.45;;;10.80;99.90;;;;;;5029632;28;20049;-90
2023/01/01 08:20:05;;;;;;;18.85;3.20;;;10.80;99.90;;;;;;5028770;28;20060;-89
2023/01/01 08:22:32;;;;;;;14.27;2.90;;;10.90;99.90;;;;;;5027216;28;20484;-89
2023/01/01 08:24:58;;;;;;;14.02;3.03;;;10.80;99.90;;;;;;5029787;28;20102;-88
2023/01/01 08:27:24;;;;;;;15.23;2.90;;;10.80;99.90;;;;;;5032428;28;20041;-90
2023/01/01 08:29:50;;;;;;;18.65;3.20;;;10.80;99.90;;;;;;5028333;28;20041;-88
2023/01/01 08:32:20;;;;;;;14.65;2.97;;;10.80;99.90;;;;;;5057136;28;20036;-90
2023/01/01 08:34:46;;;;;;;19.40;3.03;;;10.80;99.90;;;;;;5026554;28;20328;-89
2023/01/01 08:37:13;;;;;;;15.27;3.10;;;10.80;99.90;;;;;;5011998;28;20301;-89
2023/01/01 08:39:39;;;;;;;18.55;3.55;;;10.80;99.90;;;;;;5028991;28;20044;-89
2023/01/01 08:42:05;;;;;;;17.35;3.20;;;10.80;99.90;;;;;;5045073;28;20037;-89
2023/01/01 08:44:31;;;;;;;16.48;3.35;;;10.80;99.90;;;;;;5041725;28;20076;-87
2023/01/01 08:46:56;;;;;;;13.45;3.25;;;10.80;99.90;;;;;;5025749;28;20067;-89
2023/01/01 08:49:22;;;;;;;17.02;3.63;;;10.80;99.90;;;;;;5028661;28;20421;-89
2023/01/01 08:51:48;;;;;;;18.45;3.63;;;10.80;99.90;;;;;;5042481;28;20120;-88
2023/01/01 08:54:13;;;;;;;19.65;4.25;;;10.80;99.90;;;;;;5009288;28;20045;-89
2023/01/01 08:56:39;;;;;;;14.60;3.45;;;10.70;99.90;;;;;;5010362;28;20463;-90
2023/01/01 08:59:05;;;;;;;19.48;3.83;;;11.50;99.90;;;;;;5027169;28;20060;-89
2023/01/01 09:01:31;;;;;;;17.35;3.35;;;10.80;99.90;;;;;;5029508;28;20037;-89
2023/01/01 09:03:56;;;;;;;18.08;3.78;;;10.80;99.90;;;;;;5025691;28;20036;-89
2023/01/01 09:06:22;;;;;;;16.42;3.58;;;10.80;99.90;;;;;;5041891;28;20041;-89
2023/01/01 09:08:48;;;;;;;18.33;3.90;;;10.80;99.90;;;;;;5027057;28;20401;-90
2023/01/01 09:11:24;;;;;;;14.68;3.33;;;10.80;99.90;;;;;;5026152;28;21232;-89
2023/01/01 09:13:51;;;;;;;16.58;3.45;;;10.70;99.90;;;;;;5044972;28;20383;-89
2023/01/01 09:16:21;;;;;;;22.00;3.67;;;10.70;99.90;;;;;;5045224;28;20207;-90
2023/01/01 09:18:47;;;;;;;18.10;3.42;;;11.70;99.90;;;;;;5021508;28;20049;-91
2023/01/01 09:21:12;;;;;;;13.70;3.15;;;10.70;99.90;;;;;;5058847;28;20049;-90
2023/01/01 09:23:39;;;;;;;14.57;2.92;;;10.70;99.90;;;;;;5042328;28;20033;-90
2023/01/01 09:26:07;;;;;;;18.35;3.75;;;10.80;99.90;;;;;;5023010;28;20042;-90
2023/01/01 09:28:33;;;;;;;19.88;3.88;;;10.80;99.90;;;;;;5037335;28;20124;-89
2023/01/01 09:31:00;;;;;;;18.08;3.33;;;10.80;99.90;;;;;;5037183;28;20410;-89
2023/01/01 09:33:26;;;;;;;16.65;3.78;;;10.80;99.90;;;;;;5003355;28;20048;-90
2023/01/01 09:35:52;;;;;;;18.42;3.58;;;10.80;99.90;;;;;;5042191;28;20394;-90
2023/01/01 09:38:18;;;;;;;20.92;3.78;;;10.50;99.90;;;;;;5040963;28;20044;-90
2023/01/01 09:41:02;;;;;;;22.13;5.03;;;10.90;99.90;;;;;;5022698;28;20036;-90
2023/01/01 09:43:34;;;;;;;17.13;3.25;;;10.90;99.90;;;;;;5027392;28;20041;-90
2023/01/01 09:46:05;;;;;;;21.05;3.92;;;10.90;99.90;;;;;;5027108;28;20037;-91
2023/01/01 09:48:31;;;;;;;19.80;3.60;;;11.00;99.90;;;;;;5027189;28;20047;-91
2023/01/01 09:50:59;;;;;;;18.08;3.10;;;11.00;99.90;;;;;;5021805;28;20487;-90
2023/01/01 09:53:40;;;;;;;19.13;3.88;;;11.00;99.90;;;;;;5004323;28;20513;-90
2023/01/01 09:56:13;;;;;;;18.25;3.55;;;11.00;99.90;;;;;;5023356;28;20051;-90
2023/01/01 09:58:39;;;;;;;16.40;3.05;;;11.00;99.90;;;;;;5026531;28;20060;-90
2023/01/01 10:01:16;;;;;;;17.38;3.88;;;11.10;99.90;;;;;;5007578;28;20479;-91
2023/01/01 10:04:01;;;;;;;19.58;3.65;;;11.10;99.90;;;;;;5041337;28;20168;-90
2023/01/01 10:06:32;;;;;;;18.02;4.18;;;11.10;99.90;;;;;;5047489;28;20068;-90
2023/01/01 10:09:26;;;;;;;15.95;3.75;;;11.10;99.90;;;;;;5045329;28;20049;-90
2023/01/01 10:12:24;;;;;;;18.85;3.92;;;11.20;99.90;;;;;;5027131;28;20041;-90
2023/01/01 10:14:59;;;;;;;14.85;3.05;;;11.20;99.90;;;;;;5043984;28;20055;-90
2023/01/01 10:17:44;;;;;;;24.27;4.15;;;11.20;99.90;;;;;;5021947;28;20107;-90
2023/01/01 10:20:33;;;;;;;18.75;3.63;;;11.30;99.90;;;;;;5036350;28;21316;-88
2023/01/01 10:23:10;;;;;;;17.23;3.95;;;11.30;99.90;;;;;;5059684;28;20044;-88
2023/01/01 10:25:38;;;;;;;17.63;3.63;;;11.30;99.90;;;;;;5048556;28;20037;-89
2023/01/01 10:28:45;;;;;;;16.50;3.30;;;11.30;99.90;;;;;;5048613;28;20045;-90
2023/01/01 10:31:24;;;;;;;17.83;3.70;;;11.30;99.90;;;;;;4974148;28;20077;-89
2023/01/01 10:33:50;;;;;;;20.50;3.40;;;11.40;99.90;;;;;;4952449;28;20054;-90
2023/01/01 10:36:18;;;;;;;17.80;3.47;;;11.40;99.90;;;;;;4991733;28;20045;-90
2023/01/01 10:38:44;;;;;;;16.95;3.47;;;11.40;99.90;;;;;;5048031;28;20115;-90
2023/01/01 10:41:12;;;;;;;20.63;4.03;;;11.40;99.90;;;;;;5047714;28;20462;-90
2023/01/01 10:43:37;;;;;;;18.33;3.38;;;11.30;99.90;;;;;;5033785;28;20080;-90
2023/01/01 10:46:04;;;;;;;17.85;3.15;;;11.30;99.90;;;;;;5012663;28;20124;-90
2023/01/01 10:48:32;;;;;;;18.20;3.60;;;11.20;99.90;;;;;;5048316;28;20510;-90
2023/01/01 10:51:00;;;;;;;17.73;3.40;;;11.20;99.90;;;;;;5014414;28;20049;-90
2023/01/01 10:53:49;;;;;;;13.60;3.33;;;11.20;99.90;;;;;;5047610;28;20502;-90
2023/01/01 10:56:14;;;;;;;17.77;3.42;;;11.20;99.90;;;;;;5029528;28;20506;-90
2023/01/01 10:58:44;;;;;;;18.48;2.72;;;11.20;99.90;;;;;;5031082;28;20036;-89
2023/01/01 11:01:16;;;;;;;15.88;3.20;;;11.20;99.90;;;;;;5029376;28;20041;-90
2023/01/01 11:04:11;;;;;;;17.10;3.22;;;11.20;99.90;;;;;;5027822;28;20037;-90
2023/01/01 11:06:40;;;;;;;15.95;2.85;;;11.20;99.90;;;;;;5027945;28;20044;-90
2023/01/01 11:09:25;;;;;;;16.20;2.92;;;11.20;99.90;;;;;;5027011;28;20401;-90
2023/01/01 11:12:03;;;;;;;12.68;2.97;;;11.20;99.90;;;;;;5031130;28;20045;-90
2023/01/01 11:14:47;;;;;;;15.10;2.80;;;11.20;99.90;;;;;;5029033;28;20033;-89
2023/01/01 11:17:20;;;;;;;14.98;3.13;;;10.00;99.90;;;;;;5045771;28;20047;-89
2023/01/01 11:19:48;;;;;;;14.98;3.40;;;11.20;99.90;;;;;;5029362;28;20080;-89
2023/01/01 11:22:38;;;;;;;19.17;2.63;;;11.20;99.90;;;;;;5030539;28;20091;-88
2023/01/01 11:25:18;;;;;;;15.50;2.95;;;11.20;99.90;;;;;;5028810;28;20037;-90
2023/01/01 11:27:45;;;;;;;12.80;2.90;;;11.30;99.90;;;;;;5028376;28;20052;-90
2023/01/01 11:30:25;;;;;;;11.35;2.35;;;11.30;99.90;;;;;;5046814;28;20033;-90
2023/01/01 11:32:59;;;;;;;15.27;2.90;;;11.30;99.90;;;;;;5046748;28;20490;-89
2023/01/01 11:35:29;;;;;;;15.25;2.67;;;11.30;99.90;;;;;;5046357;28;20045;-90
2023/01/01 11:37:56;;;;;;;12.40;2.60;;;11.30;99.90;;;;;;5024288;28;20060;-89
2023/01/01 11:40:28;;;;;;;17.60;3.00;;;11.30;99.90;;;;;;5030380;28;20294;-89
2023/01/01 11:42:57;;;;;;;16.15;3.13;;;11.30;99.90;;;;;;5029706;28;20041;-88
2023/01/01 11:45:27;;;;;;;14.32;2.95;;;11.30;99.90;;;;;;5029368;28;20037;-90
2023/01/01 11:48:02;;;;;;;14.35;2.50;;;11.30;99.90;;;;;;5040356;28;20525;-89
2023/01/01 11:50:34;;;;;;;15.80;2.90;;;11.20;99.90;;;;;;5030234;28;20574;-88
2023/01/01 11:53:23;;;;;;;13.32;2.60;;;11.20;99.90;;;;;;5047040;28;20048;-89
2023/01/01 11:55:57;;;;;;;12.45;2.60;;;11.30;99.90;;;;;;5031975;28;20144;-89
2023/01/01 11:58:40;;;;;;;18.30;3.08;;;11.30;99.90;;;;;;5030910;28;21266;-90
2023/01/01 12:01:42;;;;;;;12.15;2.65;;;11.30;99.90;;;;;;5046406;28;20041;-91
2023/01/01 12:04:15;;;;;;;15.38;2.92;;;11.40;99.90;;;;;;5006098;28;20135;-89
2023/01/01 12:06:50;;;;;;;16.52;3.28;;;11.50;99.90;;;;;;5026061;28;20067;-90
2023/01/01 12:09:26;;;;;;;12.80;2.60;;;11.50;99.90;;;;;;5048118;28;20076;-90
2023/01/01 12:11:56;;;;;;;14.70;3.13;;;11.50;99.90;;;;;;5030221;28;20557;-90
2023/01/01 12:14:28;;;;;;;15.90;2.60;;;11.60;99.90;;;;;;5049591;28;20064;-90
2023/01/01 12:17:11;;;;;;;14.82;2.85;;;11.70;99.90;;;;;;5047870;28;20053;-89
2023/01/01 12:20:03;;;;;;;16.10;3.08;;;11.70;99.90;;;;;;5058302;28;20068;-90
2023/01/01 12:22:29;;;;;;;16.30;2.67;;;11.70;99.90;;;;;;4696506;28;10000313;-89
2023/01/01 12:24:59;;;;;;;18.25;3.25;;;11.70;99.90;;;;;;4677094;28;10000066;-90
2023/01/01 12:27:58;;;;;;;14.38;2.78;;;11.60;99.90;;;;;;5027083;28;20037;-90
2023/01/01 12:30:46;;;;;;;15.20;2.88;;;11.60;99.90;;;;;;5032842;28;20506;-90
2023/01/01 12:33:24;;;;;;;12.77;2.85;;;11.60;99.90;;;;;;5026358;28;20025;-90
2023/01/01 12:36:24;;;;;;;12.55;2.78;;;11.50;99.90;;;;;;5052117;28;20021;-90
2023/01/01 12:39:27;;;;;;;15.60;3.15;;;11.50;99.90;;;;;;5033780;28;20073;-90
2023/01/01 12:42:24;;;;;;;18.25;3.13;;;11.60;99.90;;;;;;5024914;28;20073;-89
2023/01/01 12:45:44;;;;;;;17.20;3.05;;;11.60;99.90;;;;;;5044285;28;20056;-89
2023/01/01 12:48:35;;;;;;;12.45;2.70;;;11.60;99.90;;;;;;4948448;28;20043;-89
2023/01/01 12:51:29;;;;;;;14.30;3.03;;;11.70;99.90;;;;;;5021213;28;20041;-89
2023/01/01 12:54:27;;;;;;;16.45;3.10;;;11.60;99.90;;;;;;5028247;28;20035;-89
2023/01/01 12:57:05;;;;;;;14.38;2.85;;;11.60;99.90;;;;;;5043963;28;20180;-89
2023/01/01 12:59:34;;;;;;;14.85;2.97;;;11.50;99.90;;;;;;5042336;28;20044;-89